sensor_id;sensor_type;location;lat;lon;timestamp;pressure;altitude;pressure_sealevel;temperature;humidity
71361;BME280;59166;48.908;1.870;2023-02-28T00:03:59;101388.81;;;0.20;78.27
71361;BME280;59166;48.908;1.870;2023-02-28T00:09:00;101386.31;;;0.18;78.65
71361;BME280;59166;48.908;1.870;2023-02-28T00:14:03;101392.13;;;0.30;78.55
71361;BME280;59166;48.908;1.870;2023-02-28T00:19:04;101394.75;;;0.54;76.98
71361;BME280;59166;48.908;1.870;2023-02-28T00:24:05;101401.06;;;0.61;76.42
71361;BME280;59166;48.908;1.870;2023-02-28T00:29:07;101401.09;;;0.45;77.21
71361;BME280;59166;48.908;1.870;2023-02-28T00:34:08;101402.44;;;0.25;78.19
71361;BME280;59166;48.908;1.870;2023-02-28T00:39:09;101411.25;;;0.09;79.46
71361;BME280;59166;48.908;1.870;2023-02-28T00:44:11;101420.19;;;-0.08;79.66
71361;BME280;59166;48.908;1.870;2023-02-28T00:49:12;101419.19;;;-0.15;80.66
71361;BME280;59166;48.908;1.870;2023-02-28T00:54:13;101415.31;;;-0.21;81.46
71361;BME280;59166;48.908;1.870;2023-02-28T00:59:16;101419.00;;;-0.22;82.29
71361;BME280;59166;48.908;1.870;2023-02-28T01:04:17;101419.50;;;-0.18;82.42
71361;BME280;59166;48.908;1.870;2023-02-28T01:09:19;101420.63;;;-0.21;82.78
71361;BME280;59166;48.908;1.870;2023-02-28T01:14:21;101411.38;;;-0.25;82.90
71361;BME280;59166;48.908;1.870;2023-02-28T01:19:22;101424.31;;;-0.22;81.96
71361;BME280;59166;48.908;1.870;2023-02-28T01:24:23;101434.06;;;-0.30;83.08
71361;BME280;59166;48.908;1.870;2023-02-28T01:29:25;101434.56;;;-0.35;82.76
71361;BME280;59166;48.908;1.870;2023-02-28T01:34:26;101419.78;;;-0.46;82.67
71361;BME280;59166;48.908;1.870;2023-02-28T01:39:27;101424.72;;;-0.51;83.45
71361;BME280;59166;48.908;1.870;2023-02-28T01:44:59;101424.38;;;-0.56;83.14
71361;BME280;59166;48.908;1.870;2023-02-28T01:50:03;101421.09;;;-0.50;83.28
71361;BME280;59166;48.908;1.870;2023-02-28T01:55:06;101417.22;;;-0.63;83.58
71361;BME280;59166;48.908;1.870;2023-02-28T02:00:11;101415.53;;;-0.72;84.31
71361;BME280;59166;48.908;1.870;2023-02-28T02:05:15;101417.19;;;-0.71;83.66
71361;BME280;59166;48.908;1.870;2023-02-28T02:10:17;101411.72;;;-0.70;83.51
71361;BME280;59166;48.908;1.870;2023-02-28T02:15:24;101416.84;;;-0.76;84.04
71361;BME280;59166;48.908;1.870;2023-02-28T02:20:51;101409.53;;;-0.82;83.44
71361;BME280;59166;48.908;1.870;2023-02-28T02:26:06;101406.38;;;-0.86;83.79
71361;BME280;59166;48.908;1.870;2023-02-28T02:36:45;101408.13;;;-1.03;84.77
71361;BME280;59166;48.908;1.870;2023-02-28T02:41:51;101398.81;;;-1.07;85.45
71361;BME280;59166;48.908;1.870;2023-02-28T02:46:54;101402.75;;;-1.11;86.37
71361;BME280;59166;48.908;1.870;2023-02-28T02:52:20;101401.06;;;-1.20;87.21
71361;BME280;59166;48.908;1.870;2023-02-28T02:57:25;101405.84;;;-1.23;86.39
71361;BME280;59166;48.908;1.870;2023-02-28T03:02:28;101406.25;;;-1.36;87.30
71361;BME280;59166;48.908;1.870;2023-02-28T03:07:32;101394.00;;;-1.37;86.74
71361;BME280;59166;48.908;1.870;2023-02-28T03:12:49;101397.41;;;-1.44;87.17
71361;BME280;59166;48.908;1.870;2023-02-28T03:18:02;101398.91;;;-1.42;87.20
71361;BME280;59166;48.908;1.870;2023-02-28T03:23:14;101403.16;;;-1.49;87.61
71361;BME280;59166;48.908;1.870;2023-02-28T03:28:22;101408.78;;;-1.52;87.33
71361;BME280;59166;48.908;1.870;2023-02-28T03:33:29;101413.94;;;-1.51;87.12
71361;BME280;59166;48.908;1.870;2023-02-28T03:38:36;101402.81;;;-1.54;87.36
71361;BME280;59166;48.908;1.870;2023-02-28T03:43:41;101406.69;;;-1.66;87.60
71361;BME280;59166;48.908;1.870;2023-02-28T03:48:45;101405.19;;;-1.69;87.71
71361;BME280;59166;48.908;1.870;2023-02-28T03:53:54;101401.19;;;-1.73;87.69
71361;BME280;59166;48.908;1.870;2023-02-28T03:59:00;101406.47;;;-1.73;87.64
71361;BME280;59166;48.908;1.870;2023-02-28T04:04:03;101411.94;;;-1.74;88.18
71361;BME280;59166;48.908;1.870;2023-02-28T04:09:08;101409.22;;;-1.82;88.45
71361;BME280;59166;48.908;1.870;2023-02-28T04:14:10;101404.69;;;-1.90;88.43
71361;BME280;59166;48.908;1.870;2023-02-28T04:19:13;101409.47;;;-1.93;88.49
71361;BME280;59166;48.908;1.870;2023-02-28T04:24:17;101402.13;;;-2.00;89.05
71361;BME280;59166;48.908;1.870;2023-02-28T04:29:20;101417.34;;;-2.02;88.74
71361;BME280;59166;48.908;1.870;2023-02-28T04:34:22;101417.66;;;-2.05;88.92
71361;BME280;59166;48.908;1.870;2023-02-28T04:39:25;101417.41;;;-2.11;88.91
71361;BME280;59166;48.908;1.870;2023-02-28T04:44:25;101421.34;;;-2.15;89.28
71361;BME280;59166;48.908;1.870;2023-02-28T04:49:26;101428.88;;;-2.20;90.16
71361;BME280;59166;48.908;1.870;2023-02-28T04:54:29;101435.72;;;-2.18;90.38
71361;BME280;59166;48.908;1.870;2023-02-28T04:59:30;101437.34;;;-2.17;90.70
71361;BME280;59166;48.908;1.870;2023-02-28T05:04:31;101447.72;;;-2.23;90.40
71361;BME280;59166;48.908;1.870;2023-02-28T05:09:33;101457.31;;;-2.22;90.39
71361;BME280;59166;48.908;1.870;2023-02-28T05:14:34;101460.03;;;-2.32;91.13
71361;BME280;59166;48.908;1.870;2023-02-28T05:19:35;101458.66;;;-2.36;90.94
71361;BME280;59166;48.908;1.870;2023-02-28T05:24:38;101460.34;;;-2.35;91.82
71361;BME280;59166;48.908;1.870;2023-02-28T05:29:38;101461.72;;;-2.31;92.35
71361;BME280;59166;48.908;1.870;2023-02-28T05:34:40;101470.94;;;-2.35;92.67
71361;BME280;59166;48.908;1.870;2023-02-28T05:39:43;101470.09;;;-2.35;93.49
71361;BME280;59166;48.908;1.870;2023-02-28T05:44:43;101473.03;;;-2.38;93.34
71361;BME280;59166;48.908;1.870;2023-02-28T05:49:44;101473.47;;;-2.43;93.82
71361;BME280;59166;48.908;1.870;2023-02-28T05:54:47;101485.31;;;-2.47;94.78
71361;BME280;59166;48.908;1.870;2023-02-28T05:59:48;101473.91;;;-2.47;94.78
71361;BME280;59166;48.908;1.870;2023-02-28T06:04:49;101476.16;;;-2.53;95.77
71361;BME280;59166;48.908;1.870;2023-02-28T06:09:52;101485.25;;;-2.55;96.36
71361;BME280;59166;48.908;1.870;2023-02-28T06:14:53;101487.72;;;-2.54;96.39
71361;BME280;59166;48.908;1.870;2023-02-28T06:19:54;101487.00;;;-2.46;96.36
71361;BME280;59166;48.908;1.870;2023-02-28T06:24:56;101495.66;;;-2.54;95.01
71361;BME280;59166;48.908;1.870;2023-02-28T06:29:57;101488.84;;;-2.56;94.12
71361;BME280;59166;48.908;1.870;2023-02-28T06:34:58;101491.94;;;-2.61;94.10
71361;BME280;59166;48.908;1.870;2023-02-28T06:40:00;101494.44;;;-2.59;94.56
71361;BME280;59166;48.908;1.870;2023-02-28T06:45:01;101488.31;;;-2.60;94.29
71361;BME280;59166;48.908;1.870;2023-02-28T06:50:03;101493.91;;;-2.63;94.43
71361;BME280;59166;48.908;1.870;2023-02-28T06:55:07;101496.53;;;-2.63;94.79
71361;BME280;59166;48.908;1.870;2023-02-28T07:00:09;101489.16;;;-2.59;94.33
71361;BME280;59166;48.908;1.870;2023-02-28T07:05:10;101488.56;;;-2.53;95.21
71361;BME280;59166;48.908;1.870;2023-02-28T07:10:13;101493.59;;;-2.60;96.23
71361;BME280;59166;48.908;1.870;2023-02-28T07:15:14;101492.34;;;-2.56;97.42
71361;BME280;59166;48.908;1.870;2023-02-28T07:20:15;101499.69;;;-2.50;97.33
71361;BME280;59166;48.908;1.870;2023-02-28T07:25:17;101501.31;;;-2.39;98.54
71361;BME280;59166;48.908;1.870;2023-02-28T07:30:18;101496.50;;;-2.26;98.25
71361;BME280;59166;48.908;1.870;2023-02-28T07:35:19;101496.53;;;-2.08;97.61
71361;BME280;59166;48.908;1.870;2023-02-28T07:40:22;101495.72;;;-1.91;96.65
71361;BME280;59166;48.908;1.870;2023-02-28T07:45:22;101495.03;;;-1.75;96.75
71361;BME280;59166;48.908;1.870;2023-02-28T07:50:23;101494.28;;;-1.50;94.66
71361;BME280;59166;48.908;1.870;2023-02-28T07:55:26;101491.41;;;-1.13;92.89
71361;BME280;59166;48.908;1.870;2023-02-28T08:00:27;101493.00;;;-0.95;92.42
71361;BME280;59166;48.908;1.870;2023-02-28T08:05:28;101495.00;;;-0.88;91.18
71361;BME280;59166;48.908;1.870;2023-02-28T08:10:30;101509.69;;;-0.76;91.52
71361;BME280;59166;48.908;1.870;2023-02-28T08:15:31;101507.63;;;-0.57;90.76
71361;BME280;59166;48.908;1.870;2023-02-28T08:20:32;101516.53;;;-0.32;89.16
71361;BME280;59166;48.908;1.870;2023-02-28T08:25:35;101519.09;;;-0.06;88.35
71361;BME280;59166;48.908;1.870;2023-02-28T08:30:36;101531.00;;;0.56;85.26
71361;BME280;59166;48.908;1.870;2023-02-28T08:35:37;101525.31;;;1.07;82.71
71361;BME280;59166;48.908;1.870;2023-02-28T08:40:39;101523.84;;;1.13;81.24
71361;BME280;59166;48.908;1.870;2023-02-28T08:45:40;101530.09;;;1.36;80.57
71361;BME280;59166;48.908;1.870;2023-02-28T08:50:44;101528.19;;;2.00;77.61
71361;BME280;59166;48.908;1.870;2023-02-28T08:55:46;101529.94;;;2.61;72.59
71361;BME280;59166;48.908;1.870;2023-02-28T09:00:47;101521.31;;;2.96;71.74
71361;BME280;59166;48.908;1.870;2023-02-28T09:05:55;101523.72;;;3.21;70.58
71361;BME280;59166;48.908;1.870;2023-02-28T09:10:58;101526.69;;;3.55;69.57
71361;BME280;59166;48.908;1.870;2023-02-28T09:16:00;101527.06;;;3.66;68.62
71361;BME280;59166;48.908;1.870;2023-02-28T09:21:03;101532.72;;;3.57;67.19
71361;BME280;59166;48.908;1.870;2023-02-28T09:26:05;101540.53;;;3.44;68.23
71361;BME280;59166;48.908;1.870;2023-02-28T09:31:12;101534.09;;;3.53;67.77
71361;BME280;59166;48.908;1.870;2023-02-28T09:36:13;101530.09;;;3.78;67.40
71361;BME280;59166;48.908;1.870;2023-02-28T09:41:17;101528.13;;;4.01;65.43
71361;BME280;59166;48.908;1.870;2023-02-28T09:46:27;101529.41;;;4.05;65.96
71361;BME280;59166;48.908;1.870;2023-02-28T09:51:40;101523.13;;;4.13;64.36
71361;BME280;59166;48.908;1.870;2023-02-28T09:57:07;101515.56;;;4.16;63.54
71361;BME280;59166;48.908;1.870;2023-02-28T10:02:21;101513.16;;;4.22;63.12
71361;BME280;59166;48.908;1.870;2023-02-28T10:07:37;101506.28;;;4.34;63.52
71361;BME280;59166;48.908;1.870;2023-02-28T10:12:46;101501.75;;;4.34;61.72
71361;BME280;59166;48.908;1.870;2023-02-28T10:17:53;101500.19;;;4.04;63.30
71361;BME280;59166;48.908;1.870;2023-02-28T10:22:58;101494.53;;;4.13;62.79
71361;BME280;59166;48.908;1.870;2023-02-28T10:28:09;101493.78;;;4.19;60.62
71361;BME280;59166;48.908;1.870;2023-02-28T10:33:19;101495.44;;;4.63;58.50
71361;BME280;59166;48.908;1.870;2023-02-28T10:38:24;101484.16;;;4.89;58.32
71361;BME280;59166;48.908;1.870;2023-02-28T10:43:27;101467.00;;;4.83;56.79
71361;BME280;59166;48.908;1.870;2023-02-28T10:48:32;101476.16;;;4.95;57.87
71361;BME280;59166;48.908;1.870;2023-02-28T10:53:37;101456.78;;;4.65;54.45
71361;BME280;59166;48.908;1.870;2023-02-28T10:58:51;101453.41;;;5.12;52.79
71361;BME280;59166;48.908;1.870;2023-02-28T11:03:53;101453.06;;;4.94;52.73
71361;BME280;59166;48.908;1.870;2023-02-28T11:08:55;101446.19;;;5.13;51.28
71361;BME280;59166;48.908;1.870;2023-02-28T11:14:19;101444.22;;;4.94;51.33
71361;BME280;59166;48.908;1.870;2023-02-28T11:19:25;101433.78;;;5.40;49.67
71361;BME280;59166;48.908;1.870;2023-02-28T11:24:29;101441.03;;;5.11;48.60
71361;BME280;59166;48.908;1.870;2023-02-28T11:29:33;101433.66;;;5.20;48.37
71361;BME280;59166;48.908;1.870;2023-02-28T11:34:36;101426.66;;;5.60;48.15
71361;BME280;59166;48.908;1.870;2023-02-28T11:39:37;101409.59;;;5.81;47.59
71361;BME280;59166;48.908;1.870;2023-02-28T11:44:53;101405.84;;;5.68;48.37
71361;BME280;59166;48.908;1.870;2023-02-28T11:50:08;101410.19;;;5.63;47.28
71361;BME280;59166;48.908;1.870;2023-02-28T11:55:17;101402.38;;;5.81;49.99
71361;BME280;59166;48.908;1.870;2023-02-28T12:00:42;101405.53;;;6.11;49.04
71361;BME280;59166;48.908;1.870;2023-02-28T12:05:46;101387.22;;;6.28;46.17
71361;BME280;59166;48.908;1.870;2023-02-28T12:10:59;101386.59;;;6.52;48.44
71361;BME280;59166;48.908;1.870;2023-02-28T12:16:33;101369.88;;;6.69;47.10
71361;BME280;59166;48.908;1.870;2023-02-28T12:21:49;101369.38;;;5.81;47.27
71361;BME280;59166;48.908;1.870;2023-02-28T12:26:56;101364.69;;;5.29;49.60
71361;BME280;59166;48.908;1.870;2023-02-28T12:32:05;101352.63;;;5.59;48.18
71361;BME280;59166;48.908;1.870;2023-02-28T12:37:17;101354.09;;;5.74;46.88
71361;BME280;59166;48.908;1.870;2023-02-28T12:42:41;101323.41;;;5.77;47.12
71361;BME280;59166;48.908;1.870;2023-02-28T12:47:46;101335.75;;;5.85;44.81
71361;BME280;59166;48.908;1.870;2023-02-28T12:52:56;101323.19;;;5.72;46.86
71361;BME280;59166;48.908;1.870;2023-02-28T12:58:07;101315.38;;;5.90;45.37
71361;BME280;59166;48.908;1.870;2023-02-28T13:03:33;101308.16;;;6.10;44.89
71361;BME280;59166;48.908;1.870;2023-02-28T13:09:04;101301.13;;;6.49;46.80
71361;BME280;59166;48.908;1.870;2023-02-28T13:14:25;101300.31;;;6.15;46.38
71361;BME280;59166;48.908;1.870;2023-02-28T13:19:30;101296.59;;;6.16;45.11
71361;BME280;59166;48.908;1.870;2023-02-28T13:24:47;101294.09;;;5.69;45.93
71361;BME280;59166;48.908;1.870;2023-02-28T13:29:48;101283.38;;;5.89;46.25
71361;BME280;59166;48.908;1.870;2023-02-28T13:35:16;101290.81;;;6.46;44.68
71361;BME280;59166;48.908;1.870;2023-02-28T13:40:35;101278.38;;;6.45;43.05
71361;BME280;59166;48.908;1.870;2023-02-28T13:45:36;101292.47;;;5.94;45.23
71361;BME280;59166;48.908;1.870;2023-02-28T13:50:39;101294.03;;;5.30;46.51
71361;BME280;59166;48.908;1.870;2023-02-28T13:55:44;101286.66;;;5.64;45.02
71361;BME280;59166;48.908;1.870;2023-02-28T14:06:28;101272.88;;;5.87;44.74
71361;BME280;59166;48.908;1.870;2023-02-28T14:11:31;101277.59;;;6.11;43.58
71361;BME280;59166;48.908;1.870;2023-02-28T14:16:38;101287.53;;;6.24;42.59
71361;BME280;59166;48.908;1.870;2023-02-28T14:21:50;101277.59;;;5.98;44.74
71361;BME280;59166;48.908;1.870;2023-02-28T14:27:14;101265.63;;;5.61;45.21
71361;BME280;59166;48.908;1.870;2023-02-28T14:32:25;101269.97;;;5.82;44.50
71361;BME280;59166;48.908;1.870;2023-02-28T14:37:33;101264.19;;;6.18;42.12
71361;BME280;59166;48.908;1.870;2023-02-28T14:42:37;101275.16;;;6.03;42.30
71361;BME280;59166;48.908;1.870;2023-02-28T14:47:38;101268.13;;;5.89;43.07
71361;BME280;59166;48.908;1.870;2023-02-28T14:52:43;101270.59;;;5.84;44.33
71361;BME280;59166;48.908;1.870;2023-02-28T14:57:51;101260.09;;;5.83;43.49
71361;BME280;59166;48.908;1.870;2023-02-28T15:02:52;101260.28;;;6.01;42.61
71361;BME280;59166;48.908;1.870;2023-02-28T15:08:06;101256.78;;;6.13;42.95
71361;BME280;59166;48.908;1.870;2023-02-28T15:13:11;101264.44;;;5.84;42.90
71361;BME280;59166;48.908;1.870;2023-02-28T15:18:21;101263.59;;;5.63;44.72
71361;BME280;59166;48.908;1.870;2023-02-28T15:23:26;101264.44;;;5.77;43.79
71361;BME280;59166;48.908;1.870;2023-02-28T15:28:27;101255.31;;;5.45;44.98
71361;BME280;59166;48.908;1.870;2023-02-28T15:33:30;101257.13;;;5.32;43.17
71361;BME280;59166;48.908;1.870;2023-02-28T15:38:34;101262.66;;;5.23;43.29
71361;BME280;59166;48.908;1.870;2023-02-28T15:43:36;101255.31;;;5.52;44.13
71361;BME280;59166;48.908;1.870;2023-02-28T15:48:43;101259.22;;;5.36;43.84
71361;BME280;59166;48.908;1.870;2023-02-28T15:53:48;101263.53;;;5.37;44.23
71361;BME280;59166;48.908;1.870;2023-02-28T15:58:50;101248.69;;;5.48;43.88
71361;BME280;59166;48.908;1.870;2023-02-28T16:03:56;101254.50;;;5.78;42.44
71361;BME280;59166;48.908;1.870;2023-02-28T16:08:59;101249.78;;;5.80;42.39
71361;BME280;59166;48.908;1.870;2023-02-28T16:13:59;101257.41;;;5.63;43.42
71361;BME280;59166;48.908;1.870;2023-02-28T16:19:00;101266.34;;;5.09;45.34
71361;BME280;59166;48.908;1.870;2023-02-28T16:24:02;101274.03;;;4.78;45.93
71361;BME280;59166;48.908;1.870;2023-02-28T16:29:03;101284.13;;;4.83;45.83
71361;BME280;59166;48.908;1.870;2023-02-28T16:34:04;101280.44;;;4.84;45.06
71361;BME280;59166;48.908;1.870;2023-02-28T16:39:06;101290.97;;;4.85;45.87
71361;BME280;59166;48.908;1.870;2023-02-28T16:44:13;101291.13;;;4.77;45.50
71361;BME280;59166;48.908;1.870;2023-02-28T16:49:14;101286.72;;;4.63;45.37
71361;BME280;59166;48.908;1.870;2023-02-28T16:54:16;101292.84;;;4.57;44.71
71361;BME280;59166;48.908;1.870;2023-02-28T16:59:21;101294.22;;;4.46;45.04
71361;BME280;59166;48.908;1.870;2023-02-28T17:04:22;101301.81;;;4.43;44.75
71361;BME280;59166;48.908;1.870;2023-02-28T17:09:24;101294.28;;;4.25;45.46
71361;BME280;59166;48.908;1.870;2023-02-28T17:14:24;101307.84;;;4.24;45.52
71361;BME280;59166;48.908;1.870;2023-02-28T17:19:25;101310.72;;;4.22;45.53
71361;BME280;59166;48.908;1.870;2023-02-28T17:24:27;101307.81;;;4.17;45.79
71361;BME280;59166;48.908;1.870;2023-02-28T17:29:28;101307.75;;;4.10;46.07
71361;BME280;59166;48.908;1.870;2023-02-28T17:34:28;101327.88;;;4.06;46.55
71361;BME280;59166;48.908;1.870;2023-02-28T17:39:31;101327.00;;;3.99;46.96
71361;BME280;59166;48.908;1.870;2023-02-28T17:44:32;101330.22;;;3.95;46.25
71361;BME280;59166;48.908;1.870;2023-02-28T17:49:33;101335.91;;;3.85;46.65
71361;BME280;59166;48.908;1.870;2023-02-28T17:54:35;101347.75;;;3.76;46.38
71361;BME280;59166;48.908;1.870;2023-02-28T17:59:36;101352.31;;;3.61;47.09
71361;BME280;59166;48.908;1.870;2023-02-28T18:04:36;101350.25;;;3.42;47.68
71361;BME280;59166;48.908;1.870;2023-02-28T18:09:38;101353.69;;;3.21;48.19
71361;BME280;59166;48.908;1.870;2023-02-28T18:14:39;101359.16;;;3.13;48.42
71361;BME280;59166;48.908;1.870;2023-02-28T18:19:40;101359.69;;;3.08;47.97
71361;BME280;59166;48.908;1.870;2023-02-28T18:24:42;101367.00;;;3.00;49.29
71361;BME280;59166;48.908;1.870;2023-02-28T18:29:43;101369.28;;;2.88;48.74
71361;BME280;59166;48.908;1.870;2023-02-28T18:34:44;101375.63;;;2.73;51.23
71361;BME280;59166;48.908;1.870;2023-02-28T18:39:46;101380.03;;;2.65;51.00
71361;BME280;59166;48.908;1.870;2023-02-28T18:44:46;101370.91;;;2.45;52.72
71361;BME280;59166;48.908;1.870;2023-02-28T18:49:47;101376.19;;;2.31;53.10
71361;BME280;59166;48.908;1.870;2023-02-28T18:54:49;101369.88;;;2.09;52.46
71361;BME280;59166;48.908;1.870;2023-02-28T18:59:49;101376.28;;;2.00;52.97
71361;BME280;59166;48.908;1.870;2023-02-28T19:04:50;101369.28;;;1.99;54.89
71361;BME280;59166;48.908;1.870;2023-02-28T19:09:52;101370.44;;;2.04;55.53
71361;BME280;59166;48.908;1.870;2023-02-28T19:14:53;101367.47;;;1.99;54.45
71361;BME280;59166;48.908;1.870;2023-02-28T19:19:53;101380.91;;;1.83;55.00
71361;BME280;59166;48.908;1.870;2023-02-28T19:24:55;101390.94;;;1.81;55.75
71361;BME280;59166;48.908;1.870;2023-02-28T19:29:56;101386.94;;;1.77;56.91
71361;BME280;59166;48.908;1.870;2023-02-28T19:34:57;101392.44;;;1.76;58.63
71361;BME280;59166;48.908;1.870;2023-02-28T19:39:59;101394.94;;;1.77;59.49
71361;BME280;59166;48.908;1.870;2023-02-28T19:44:59;101390.81;;;1.75;59.80
71361;BME280;59166;48.908;1.870;2023-02-28T19:50:00;101389.28;;;1.72;59.63
71361;BME280;59166;48.908;1.870;2023-02-28T19:55:02;101391.59;;;1.75;60.50
71361;BME280;59166;48.908;1.870;2023-02-28T20:00:04;101394.28;;;1.75;59.59
71361;BME280;59166;48.908;1.870;2023-02-28T20:05:05;101391.69;;;1.67;61.83
71361;BME280;59166;48.908;1.870;2023-02-28T20:10:09;101395.09;;;1.53;62.22
71361;BME280;59166;48.908;1.870;2023-02-28T20:15:10;101406.94;;;1.42;63.52
71361;BME280;59166;48.908;1.870;2023-02-28T20:20:12;101408.84;;;1.34;64.21
71361;BME280;59166;48.908;1.870;2023-02-28T20:25:14;101411.16;;;1.29;63.40
71361;BME280;59166;48.908;1.870;2023-02-28T20:30:15;101409.97;;;1.31;62.48
71361;BME280;59166;48.908;1.870;2023-02-28T20:35:16;101407.78;;;1.43;63.25
71361;BME280;59166;48.908;1.870;2023-02-28T20:40:18;101413.09;;;1.43;63.46
71361;BME280;59166;48.908;1.870;2023-02-28T20:45:19;101409.81;;;1.41;63.73
71361;BME280;59166;48.908;1.870;2023-02-28T20:50:20;101420.09;;;1.44;63.58
71361;BME280;59166;48.908;1.870;2023-02-28T20:55:22;101424.06;;;1.48;63.32
71361;BME280;59166;48.908;1.870;2023-02-28T21:00:23;101425.38;;;1.52;62.77
71361;BME280;59166;48.908;1.870;2023-02-28T21:05:23;101413.69;;;1.61;64.15
71361;BME280;59166;48.908;1.870;2023-02-28T21:10:26;101428.00;;;1.60;62.85
71361;BME280;59166;48.908;1.870;2023-02-28T21:15:27;101431.66;;;1.59;62.62
71361;BME280;59166;48.908;1.870;2023-02-28T21:20:27;101433.13;;;1.61;60.54
71361;BME280;59166;48.908;1.870;2023-02-28T21:25:31;101438.47;;;1.61;62.40
71361;BME280;59166;48.908;1.870;2023-02-28T21:30:32;101426.03;;;1.54;61.77
71361;BME280;59166;48.908;1.870;2023-02-28T21:35:32;101436.00;;;1.52;61.81
71361;BME280;59166;48.908;1.870;2023-02-28T21:40:35;101438.53;;;1.53;62.66
71361;BME280;59166;48.908;1.870;2023-02-28T21:45:35;101443.34;;;1.58;63.33
71361;BME280;59166;48.908;1.870;2023-02-28T21:50:36;101436.34;;;1.57;64.04
71361;BME280;59166;48.908;1.870;2023-02-28T21:55:38;101446.03;;;1.50;65.05
71361;BME280;59166;48.908;1.870;2023-02-28T22:00:38;101433.34;;;1.52;65.27
71361;BME280;59166;48.908;1.870;2023-02-28T22:05:39;101438.53;;;1.53;63.54
71361;BME280;59166;48.908;1.870;2023-02-28T22:10:41;101441.47;;;1.58;63.80
71361;BME280;59166;48.908;1.870;2023-02-28T22:15:42;101440.81;;;1.56;64.10
71361;BME280;59166;48.908;1.870;2023-02-28T22:20:42;101441.66;;;1.57;63.18
71361;BME280;59166;48.908;1.870;2023-02-28T22:25:44;101436.00;;;1.52;63.01
71361;BME280;59166;48.908;1.870;2023-02-28T22:30:45;101433.75;;;1.41;63.51
71361;BME280;59166;48.908;1.870;2023-02-28T22:35:45;101438.63;;;1.29;63.23
71361;BME280;59166;48.908;1.870;2023-02-28T22:40:47;101432.50;;;1.21;63.64
71361;BME280;59166;48.908;1.870;2023-02-28T22:45:48;101434.19;;;1.14;64.13
71361;BME280;59166;48.908;1.870;2023-02-28T22:50:49;101440.88;;;1.01;62.83
71361;BME280;59166;48.908;1.870;2023-02-28T22:55:54;101434.22;;;0.97;63.89
71361;BME280;59166;48.908;1.870;2023-02-28T23:00:55;101426.09;;;0.91;64.61
71361;BME280;59166;48.908;1.870;2023-02-28T23:05:56;101439.56;;;0.81;64.28
71361;BME280;59166;48.908;1.870;2023-02-28T23:10:58;101432.63;;;0.72;65.18
71361;BME280;59166;48.908;1.870;2023-02-28T23:15:58;101423.50;;;0.58;66.51
71361;BME280;59166;48.908;1.870;2023-02-28T23:20:59;101425.00;;;0.45;65.16
71361;BME280;59166;48.908;1.870;2023-02-28T23:26:05;101421.03;;;0.33;66.20
71361;BME280;59166;48.908;1.870;2023-02-28T23:31:06;101424.19;;;0.28;67.19
71361;BME280;59166;48.908;1.870;2023-02-28T23:36:08;101417.72;;;0.23;65.62
71361;BME280;59166;48.908;1.870;2023-02-28T23:41:11;101426.00;;;0.12;67.52
71361;BME280;59166;48.908;1.870;2023-02-28T23:46:12;101422.34;;;0.04;67.49
71361;BME280;59166;48.908;1.870;2023-02-28T23:51:14;101412.53;;;-0.03;68.96
71361;BME280;59166;48.908;1.870;2023-02-28T23:56:18;101420.69;;;-0.05;69.42
